Time;durP1;ratioP1;P1;durP2;ratioP2;P2;SDS_P1;SDS_P2;PMS_P1;PMS_P2;Temp;Humidity;BMP_temperature;BMP_pressure;BME280_temperature;BME280_humidity;BME280_pressure;Samples;Min_cycle;Max_cycle;Signal;HPM_P1;HPM_P2
2021/07/28 00:01:49;;;;;;;6.30;4.73;;;21.50;99.90;;;;;;5073007;28;20407;-70
2021/07/28 00:04:14;;;;;;;5.20;4.70;;;21.40;99.90;;;;;;5072317;28;20175;-70
2021/07/28 00:06:39;;;;;;;8.27;5.20;;;21.40;99.90;;;;;;5072400;28;20174;-70
2021/07/28 00:09:05;;;;;;;4.27;3.80;;;21.40;99.90;;;;;;5072333;28;20168;-70
2021/07/28 00:11:30;;;;;;;6.00;4.47;;;21.30;99.90;;;;;;5072451;28;20252;-70
2021/07/28 00:13:56;;;;;;;5.20;4.80;;;21.30;99.90;;;;;;5072300;28;20174;-70
2021/07/28 00:16:22;;;;;;;6.60;5.70;;;21.30;99.90;;;;;;5071098;28;20170;-70
2021/07/28 00:19:07;;;;;;;6.57;4.93;;;21.30;99.90;;;;;;5072074;28;20294;-70
2021/07/28 00:24:17;;;;;;;5.20;4.80;;;21.30;99.90;;;;;;5072636;28;20398;-70
2021/07/28 00:26:43;;;;;;;5.40;4.93;;;21.30;99.90;;;;;;5072226;28;20481;-70
2021/07/28 00:29:08;;;;;;;7.23;5.10;;;21.30;99.90;;;;;;5071997;28;20172;-70
2021/07/28 00:31:34;;;;;;;5.27;4.70;;;21.20;99.90;;;;;;5072153;28;20171;-70
2021/07/28 00:33:59;;;;;;;5.53;5.10;;;21.20;99.90;;;;;;5072030;28;20222;-70
2021/07/28 00:36:25;;;;;;;5.07;4.67;;;21.10;99.90;;;;;;5072041;28;20571;-70
2021/07/28 00:38:50;;;;;;;5.00;4.60;;;21.00;99.90;;;;;;5072011;28;20204;-70
2021/07/28 00:41:15;;;;;;;5.53;4.80;;;21.00;99.90;;;;;;5071811;28;20189;-70
2021/07/28 00:43:41;;;;;;;6.80;5.67;;;21.00;99.90;;;;;;5071919;28;20159;-70
2021/07/28 00:46:07;;;;;;;5.63;4.70;;;20.90;99.90;;;;;;5071857;28;20177;-70
2021/07/28 00:48:33;;;;;;;5.50;5.10;;;20.90;99.90;;;;;;5071862;28;20205;-70
2021/07/28 00:50:59;;;;;;;5.30;4.57;;;20.90;99.90;;;;;;5072054;28;20200;-70
2021/07/28 00:53:25;;;;;;;5.17;4.67;;;20.80;99.90;;;;;;5071320;28;20422;-70
2021/07/28 00:55:53;;;;;;;6.43;4.97;;;20.80;99.90;;;;;;5071000;28;20729;-70
2021/07/28 00:58:20;;;;;;;6.00;5.40;;;20.70;99.90;;;;;;5071651;28;20492;-70
2021/07/28 01:00:46;;;;;;;4.93;4.43;;;20.70;99.90;;;;;;5071952;28;20423;-70
2021/07/28 01:03:12;;;;;;;5.67;5.13;;;20.60;99.90;;;;;;5075799;28;20457;-70
2021/07/28 01:05:37;;;;;;;5.83;5.23;;;20.60;99.90;;;;;;5076219;28;20424;-71
2021/07/28 01:08:05;;;;;;;5.93;5.33;;;20.50;99.90;;;;;;5076211;28;20173;-70
2021/07/28 01:10:30;;;;;;;6.60;4.50;;;20.50;99.90;;;;;;5076858;28;20188;-71
2021/07/28 01:12:56;;;;;;;8.13;6.33;;;20.50;99.90;;;;;;5076615;28;20406;-70
2021/07/28 01:18:03;;;;;;;5.80;4.90;;;20.40;99.90;;;;;;5075975;28;20203;-70
2021/07/28 01:20:44;;;;;;;8.63;5.60;;;20.30;99.90;;;;;;5076799;28;20514;-70
2021/07/28 01:23:25;;;;;;;5.90;5.30;;;20.20;99.90;;;;;;5077608;28;20840;-70
2021/07/28 01:25:52;;;;;;;5.83;5.10;;;20.20;99.90;;;;;;5076468;28;20424;-70
2021/07/28 01:28:24;;;;;;;5.30;4.80;;;20.10;99.90;;;;;;5075426;28;20449;-70
2021/07/28 01:31:05;;;;;;;5.60;5.20;;;20.10;99.90;;;;;;5077235;28;20670;-70
2021/07/28 01:33:33;;;;;;;5.27;4.87;;;20.00;99.90;;;;;;5077345;28;20401;-70
2021/07/28 01:36:00;;;;;;;6.97;4.97;;;20.00;99.90;;;;;;5076508;28;20413;-70
2021/07/28 01:38:27;;;;;;;5.87;5.27;;;20.00;99.90;;;;;;5075545;28;20946;-70
2021/07/28 01:41:00;;;;;;;5.87;5.03;;;19.90;99.90;;;;;;5076030;28;20478;-70
2021/07/28 01:43:27;;;;;;;5.67;4.73;;;19.90;99.90;;;;;;5075593;28;20398;-70
2021/07/28 01:45:54;;;;;;;6.50;5.87;;;19.80;99.90;;;;;;5074301;28;20441;-70
2021/07/28 01:48:19;;;;;;;7.17;5.83;;;19.80;99.90;;;;;;5075331;28;20422;-71
2021/07/28 01:50:45;;;;;;;5.73;5.23;;;19.80;99.90;;;;;;5075229;28;20915;-70
2021/07/28 01:53:12;;;;;;;6.40;5.80;;;19.70;99.90;;;;;;5074654;28;20265;-71
2021/07/28 01:55:38;;;;;;;5.70;5.10;;;19.70;99.90;;;;;;5073784;28;20841;-70
2021/07/28 01:58:04;;;;;;;5.70;5.20;;;19.70;99.90;;;;;;5074893;28;20461;-71
2021/07/28 02:00:29;;;;;;;6.10;5.40;;;19.60;99.90;;;;;;5075069;28;20193;-71
2021/07/28 02:03:02;;;;;;;7.97;5.67;;;19.60;99.90;;;;;;5073793;28;20524;-70
2021/07/28 02:05:31;;;;;;;6.07;5.47;;;19.50;99.90;;;;;;5075157;28;20633;-69
2021/07/28 02:08:04;;;;;;;5.23;4.73;;;19.60;99.90;;;;;;5073983;28;20425;-69
2021/07/28 02:10:34;;;;;;;6.03;5.13;;;19.60;99.90;;;;;;5075294;28;20436;-70
2021/07/28 02:13:01;;;;;;;6.30;4.97;;;19.50;99.90;;;;;;5074468;28;20434;-69
2021/07/28 02:15:27;;;;;;;6.03;5.20;;;19.50;99.90;;;;;;5074933;28;20497;-69
2021/07/28 02:17:54;;;;;;;5.43;4.50;;;19.50;99.90;;;;;;5075562;28;21046;-70
2021/07/28 02:20:20;;;;;;;5.87;5.37;;;19.50;99.90;;;;;;5076029;28;20782;-71
2021/07/28 02:22:46;;;;;;;5.87;5.27;;;19.50;99.90;;;;;;5074548;28;20397;-70
2021/07/28 02:25:13;;;;;;;5.73;5.23;;;19.50;99.90;;;;;;5074293;28;20473;-70
2021/07/28 02:27:38;;;;;;;5.40;4.97;;;19.60;99.90;;;;;;5075534;28;20553;-70
2021/07/28 02:30:06;;;;;;;5.43;4.80;;;19.60;99.90;;;;;;5075604;28;20448;-70
2021/07/28 02:32:32;;;;;;;6.30;5.70;;;19.60;99.90;;;;;;5075757;28;20169;-70
2021/07/28 02:34:57;;;;;;;6.60;5.67;;;19.60;99.90;;;;;;5075889;28;20414;-70
2021/07/28 02:37:23;;;;;;;6.50;5.90;;;19.60;99.90;;;;;;5074497;28;20575;-70
2021/07/28 02:39:48;;;;;;;5.90;5.30;;;19.60;99.90;;;;;;5074255;28;20597;-70
2021/07/28 02:42:14;;;;;;;5.60;5.10;;;19.50;99.90;;;;;;5056676;28;20658;-70
2021/07/28 02:44:39;;;;;;;6.47;5.87;;;19.60;99.90;;;;;;5074362;28;20539;-70
2021/07/28 02:47:05;;;;;;;5.73;4.77;;;19.60;99.90;;;;;;5074532;28;20203;-70
2021/07/28 02:49:30;;;;;;;5.50;5.10;;;19.60;99.90;;;;;;5075000;28;20194;-70
2021/07/28 02:51:56;;;;;;;4.77;4.37;;;19.60;99.90;;;;;;5075628;28;20174;-70
2021/07/28 02:54:23;;;;;;;5.87;5.37;;;19.60;99.90;;;;;;5075805;28;20196;-70
2021/07/28 02:56:49;;;;;;;6.03;5.53;;;19.50;99.90;;;;;;5074292;28;20165;-70
2021/07/28 02:59:15;;;;;;;5.23;4.83;;;19.50;99.90;;;;;;5075014;28;20411;-70
2021/07/28 03:01:40;;;;;;;7.70;5.70;;;19.50;99.90;;;;;;5074234;28;20402;-70
2021/07/28 03:04:06;;;;;;;5.80;5.30;;;19.60;99.90;;;;;;5073631;28;20184;-70
2021/07/28 03:06:32;;;;;;;6.00;5.40;;;19.60;99.90;;;;;;5073811;28;20163;-70
2021/07/28 03:08:57;;;;;;;5.23;4.83;;;19.60;99.90;;;;;;5072245;28;20227;-70
2021/07/28 03:11:23;;;;;;;6.27;5.63;;;19.60;99.90;;;;;;5073895;28;20428;-70
2021/07/28 03:13:49;;;;;;;6.20;5.60;;;19.60;99.90;;;;;;5073250;28;20173;-70
2021/07/28 03:16:14;;;;;;;8.03;4.90;;;19.60;99.90;;;;;;5072150;28;20420;-70
2021/07/28 03:18:40;;;;;;;8.03;4.70;;;19.60;99.90;;;;;;5072374;28;20294;-70
2021/07/28 03:21:05;;;;;;;5.57;5.00;;;19.70;99.90;;;;;;5073606;28;20180;-70
2021/07/28 03:23:31;;;;;;;6.37;5.80;;;19.70;99.90;;;;;;5072678;28;20187;-70
2021/07/28 03:25:56;;;;;;;5.97;5.43;;;19.70;99.90;;;;;;5073337;28;20163;-70
2021/07/28 03:28:22;;;;;;;7.47;5.00;;;19.80;99.90;;;;;;5073952;28;20547;-71
2021/07/28 03:30:49;;;;;;;5.70;5.20;;;19.70;99.90;;;;;;5075041;28;20651;-71
2021/07/28 03:33:15;;;;;;;5.40;4.80;;;19.80;99.90;;;;;;5075717;28;20266;-69
2021/07/28 03:35:40;;;;;;;5.20;4.73;;;19.80;99.90;;;;;;5073377;28;20456;-69
2021/07/28 03:38:06;;;;;;;6.33;5.60;;;19.70;99.90;;;;;;5073427;28;20447;-69
2021/07/28 03:40:31;;;;;;;5.90;4.97;;;19.70;99.90;;;;;;5072925;28;20186;-68
2021/07/28 03:42:57;;;;;;;5.27;4.87;;;19.70;99.90;;;;;;5073217;28;20178;-69
2021/07/28 03:45:23;;;;;;;5.60;5.10;;;19.70;99.90;;;;;;5073277;28;20202;-70
2021/07/28 03:47:48;;;;;;;5.03;4.63;;;19.70;99.90;;;;;;5072708;28;20645;-69
2021/07/28 03:50:14;;;;;;;6.00;5.10;;;19.70;99.90;;;;;;5072729;28;20454;-69
2021/07/28 03:52:39;;;;;;;4.57;4.17;;;19.70;99.90;;;;;;5072868;28;20173;-69
2021/07/28 03:55:05;;;;;;;5.80;4.73;;;19.80;99.90;;;;;;5072655;28;20172;-71
2021/07/28 03:57:30;;;;;;;6.07;5.07;;;19.80;99.90;;;;;;5072420;28;20222;-69
2021/07/28 03:59:56;;;;;;;5.70;5.20;;;19.90;99.90;;;;;;5072467;28;20516;-68
2021/07/28 04:02:21;;;;;;;5.73;5.03;;;19.90;99.90;;;;;;5072385;28;20186;-69
2021/07/28 04:04:47;;;;;;;5.33;4.83;;;19.90;99.90;;;;;;5072452;28;20208;-69
2021/07/28 04:07:12;;;;;;;5.83;5.23;;;19.90;99.90;;;;;;5071249;28;20531;-69
2021/07/28 04:09:38;;;;;;;8.27;4.80;;;19.90;99.90;;;;;;5072841;28;20541;-69
2021/07/28 04:12:04;;;;;;;5.50;4.97;;;19.90;99.90;;;;;;5072499;28;20327;-69
2021/07/28 04:14:30;;;;;;;4.93;4.43;;;19.90;99.90;;;;;;5072193;28;20718;-69
2021/07/28 04:16:55;;;;;;;5.50;5.10;;;19.90;99.90;;;;;;5072163;28;20455;-69
2021/07/28 04:19:21;;;;;;;4.93;4.53;;;19.90;99.90;;;;;;5072360;28;20175;-69
2021/07/28 04:21:46;;;;;;;5.73;5.23;;;20.00;99.90;;;;;;5072688;28;20170;-69
2021/07/28 04:24:11;;;;;;;5.27;4.77;;;20.00;99.90;;;;;;5072012;28;20282;-69
2021/07/28 04:26:37;;;;;;;5.47;4.80;;;20.00;99.90;;;;;;5070846;28;20185;-69
2021/07/28 04:29:02;;;;;;;5.03;4.53;;;20.00;99.90;;;;;;5072005;28;20176;-69
2021/07/28 04:31:28;;;;;;;4.87;4.47;;;20.00;99.90;;;;;;5071990;28;20558;-69
2021/07/28 04:33:53;;;;;;;5.63;4.50;;;20.00;99.90;;;;;;5072149;28;20173;-69
2021/07/28 04:36:19;;;;;;;5.07;4.43;;;20.00;99.90;;;;;;5071822;28;20629;-70
2021/07/28 04:38:44;;;;;;;5.30;4.40;;;20.00;99.90;;;;;;5071859;28;20193;-70
2021/07/28 04:41:10;;;;;;;5.63;5.17;;;20.00;99.90;;;;;;5072071;28;20192;-68
2021/07/28 04:43:35;;;;;;;6.37;5.20;;;20.00;99.90;;;;;;5072006;28;20176;-69
2021/07/28 04:46:03;;;;;;;5.07;4.57;;;20.00;99.90;;;;;;5072012;28;20208;-69
2021/07/28 04:48:29;;;;;;;4.00;3.70;;;20.00;99.90;;;;;;5071704;28;20177;-68
2021/07/28 04:50:56;;;;;;;5.40;4.90;;;20.00;99.90;;;;;;5071891;28;20427;-69
2021/07/28 04:53:22;;;;;;;5.20;4.80;;;20.00;99.90;;;;;;5070563;28;20909;-69
2021/07/28 04:55:52;;;;;;;5.27;4.83;;;20.00;99.90;;;;;;5070987;28;20422;-69
2021/07/28 04:58:18;;;;;;;5.30;4.90;;;20.10;99.90;;;;;;5071802;28;20582;-69
2021/07/28 05:00:44;;;;;;;8.33;5.23;;;20.10;99.90;;;;;;5070620;28;20430;-69
2021/07/28 05:03:09;;;;;;;5.80;4.90;;;20.10;99.90;;;;;;5071931;28;20438;-69
2021/07/28 05:05:35;;;;;;;4.97;4.50;;;20.10;99.90;;;;;;5071792;28;20188;-69
2021/07/28 05:08:00;;;;;;;4.80;4.40;;;20.20;99.90;;;;;;5070404;28;20236;-71
2021/07/28 05:10:26;;;;;;;4.50;4.10;;;20.20;99.90;;;;;;5071654;28;20199;-69
2021/07/28 05:12:51;;;;;;;6.43;5.83;;;20.20;99.90;;;;;;5071943;28;20175;-69
2021/07/28 05:15:17;;;;;;;5.30;4.73;;;20.10;99.90;;;;;;5071850;28;20187;-69
2021/07/28 05:17:42;;;;;;;5.07;4.57;;;20.10;99.90;;;;;;5071514;28;20197;-69
2021/07/28 05:20:09;;;;;;;5.40;4.67;;;20.00;99.90;;;;;;5072091;28;20214;-69
2021/07/28 05:22:34;;;;;;;4.80;4.40;;;20.10;99.90;;;;;;5071509;28;20824;-68
2021/07/28 05:25:00;;;;;;;5.13;4.40;;;20.20;99.90;;;;;;5071749;28;20446;-69
2021/07/28 05:27:27;;;;;;;5.27;4.53;;;20.20;99.90;;;;;;5071753;28;20167;-69
2021/07/28 05:29:53;;;;;;;4.70;4.17;;;20.30;99.90;;;;;;5071597;28;20184;-70
2021/07/28 05:32:21;;;;;;;5.20;4.70;;;20.30;99.90;;;;;;5071515;28;20418;-69
2021/07/28 05:34:46;;;;;;;5.03;4.57;;;20.30;99.90;;;;;;5070209;28;20415;-69
2021/07/28 05:37:12;;;;;;;4.73;4.33;;;20.40;99.90;;;;;;5070227;28;20496;-69
2021/07/28 05:39:37;;;;;;;6.40;4.67;;;20.40;99.90;;;;;;5071554;28;20199;-70
2021/07/28 05:42:03;;;;;;;7.20;5.30;;;20.40;99.90;;;;;;5071855;28;20234;-69
2021/07/28 05:44:29;;;;;;;5.47;4.60;;;20.50;99.90;;;;;;5072354;28;20172;-70
2021/07/28 05:46:54;;;;;;;7.17;5.27;;;20.40;99.90;;;;;;5073263;28;20190;-69
2021/07/28 05:49:20;;;;;;;5.30;4.80;;;20.40;99.90;;;;;;5075954;28;20518;-70
2021/07/28 05:51:46;;;;;;;5.30;4.80;;;20.40;99.90;;;;;;5076278;28;20407;-69
2021/07/28 05:54:11;;;;;;;5.57;5.00;;;20.40;99.90;;;;;;5078012;28;20235;-71
2021/07/28 05:56:37;;;;;;;6.33;5.57;;;20.40;99.90;;;;;;5079862;28;20159;-71
2021/07/28 05:59:03;;;;;;;5.60;5.10;;;20.40;99.90;;;;;;5079199;28;20695;-71
2021/07/28 06:01:28;;;;;;;5.40;4.90;;;20.40;99.90;;;;;;5078273;28;20213;-71
2021/07/28 06:03:54;;;;;;;5.47;4.93;;;20.50;99.90;;;;;;5076622;28;20193;-71
2021/07/28 06:06:19;;;;;;;6.20;4.70;;;20.50;99.90;;;;;;5077049;28;20219;-71
2021/07/28 06:08:45;;;;;;;5.47;4.97;;;20.50;99.90;;;;;;5077791;28;20175;-71
2021/07/28 06:11:10;;;;;;;5.33;4.57;;;20.60;99.90;;;;;;5077369;28;20660;-71
2021/07/28 06:13:36;;;;;;;5.03;4.53;;;20.70;99.90;;;;;;5077276;28;20535;-71
2021/07/28 06:16:01;;;;;;;5.23;4.33;;;20.70;99.90;;;;;;5078909;28;20689;-71
2021/07/28 06:18:27;;;;;;;5.07;4.03;;;20.80;99.90;;;;;;5077421;28;20216;-71
2021/07/28 06:20:53;;;;;;;7.43;5.23;;;20.90;99.90;;;;;;5077670;28;20197;-71
2021/07/28 06:23:19;;;;;;;10.93;7.57;;;21.10;99.90;;;;;;5078051;28;20658;-71
2021/07/28 06:25:45;;;;;;;5.50;5.00;;;21.20;99.90;;;;;;5078032;28;20434;-71
2021/07/28 06:28:11;;;;;;;8.10;6.40;;;21.30;99.90;;;;;;5078141;28;20182;-71
2021/07/28 06:30:37;;;;;;;8.03;5.93;;;21.40;99.90;;;;;;5078241;28;20438;-71
2021/07/28 06:33:02;;;;;;;8.20;7.23;;;21.50;99.90;;;;;;5078247;28;20185;-71
2021/07/28 06:35:28;;;;;;;7.10;6.13;;;21.40;99.90;;;;;;5077541;28;20409;-71
2021/07/28 06:37:53;;;;;;;5.03;4.57;;;21.30;99.90;;;;;;5076682;28;20209;-71
2021/07/28 06:40:19;;;;;;;3.30;3.00;;;21.20;99.90;;;;;;5077806;28;20237;-71
2021/07/28 06:42:44;;;;;;;5.00;3.77;;;21.00;99.90;;;;;;5076966;28;20647;-71
2021/07/28 06:45:10;;;;;;;3.87;3.50;;;20.90;99.90;;;;;;5077353;28;20175;-71
2021/07/28 06:47:35;;;;;;;5.00;4.50;;;21.10;99.90;;;;;;5078756;28;20662;-71
2021/07/28 06:50:03;;;;;;;6.90;4.93;;;21.20;99.90;;;;;;5075429;28;20199;-69
2021/07/28 06:52:28;;;;;;;6.40;5.57;;;21.40;99.90;;;;;;5075054;28;20173;-70
2021/07/28 06:54:54;;;;;;;5.43;4.93;;;21.50;99.90;;;;;;5075557;28;20405;-71
2021/07/28 06:57:19;;;;;;;7.87;5.60;;;21.60;99.90;;;;;;5075254;28;20190;-70
2021/07/28 06:59:45;;;;;;;9.20;5.13;;;21.40;99.90;;;;;;5075386;28;20192;-70
2021/07/28 07:02:10;;;;;;;6.87;4.00;;;21.30;99.90;;;;;;5074986;28;20186;-70
2021/07/28 07:04:35;;;;;;;4.40;4.00;;;21.40;99.90;;;;;;5074947;28;20199;-70
2021/07/28 07:07:01;;;;;;;4.27;3.97;;;21.40;99.90;;;;;;5074774;28;20620;-68
2021/07/28 07:09:26;;;;;;;4.07;3.70;;;21.30;99.90;;;;;;5074654;28;20568;-70
2021/07/28 07:11:52;;;;;;;5.63;3.90;;;21.30;99.90;;;;;;5074848;28;20228;-70
2021/07/28 07:14:17;;;;;;;5.07;4.67;;;21.30;99.90;;;;;;5074992;28;20170;-68
2021/07/28 07:16:43;;;;;;;6.50;4.43;;;21.40;99.90;;;;;;5074244;28;20664;-72
2021/07/28 07:19:08;;;;;;;6.60;4.67;;;21.40;99.90;;;;;;5074041;28;20221;-69
2021/07/28 07:21:34;;;;;;;5.07;4.50;;;21.40;99.90;;;;;;5074279;28;20198;-69
2021/07/28 07:23:59;;;;;;;5.40;4.90;;;21.30;99.90;;;;;;5074461;28;20174;-70
2021/07/28 07:26:25;;;;;;;6.57;4.77;;;21.20;99.90;;;;;;5074140;28;20168;-70
2021/07/28 07:28:50;;;;;;;5.20;4.73;;;21.20;99.90;;;;;;5074297;28;20194;-69
2021/07/28 07:31:15;;;;;;;5.57;4.90;;;21.20;99.90;;;;;;5074551;28;20185;-69
2021/07/28 07:33:41;;;;;;;5.70;5.00;;;21.10;99.90;;;;;;5074921;28;20648;-69
2021/07/28 07:36:13;;;;;;;5.23;4.73;;;21.30;99.90;;;;;;5074596;28;20238;-70
2021/07/28 07:38:39;;;;;;;5.87;5.30;;;21.30;99.90;;;;;;5073711;28;20464;-70
2021/07/28 07:41:05;;;;;;;6.03;5.17;;;21.50;99.90;;;;;;5073573;28;20816;-70
2021/07/28 07:43:30;;;;;;;5.10;4.00;;;21.70;99.90;;;;;;5073360;28;20433;-69
2021/07/28 07:45:56;;;;;;;4.67;4.20;;;21.80;99.90;;;;;;5073553;28;20200;-69
2021/07/28 07:48:23;;;;;;;10.00;5.00;;;22.00;99.90;;;;;;5073466;28;20407;-69
2021/07/28 07:50:49;;;;;;;5.37;4.97;;;22.80;99.90;;;;;;5073203;28;20559;-68
2021/07/28 07:53:14;;;;;;;5.30;4.00;;;23.90;99.90;;;;;;5073148;28;20903;-69
2021/07/28 07:55:40;;;;;;;4.47;3.80;;;24.50;99.90;;;;;;5073138;28;20418;-67
2021/07/28 07:58:05;;;;;;;10.30;4.50;;;24.80;99.90;;;;;;5073005;28;20237;-68
2021/07/28 08:00:31;;;;;;;4.73;3.60;;;25.10;99.90;;;;;;5072933;28;20193;-68
2021/07/28 08:02:56;;;;;;;3.80;3.37;;;24.40;99.90;;;;;;5072957;28;20185;-69
2021/07/28 08:05:22;;;;;;;5.07;4.33;;;25.70;99.90;;;;;;5073111;28;20256;-69
2021/07/28 08:07:47;;;;;;;4.30;3.90;;;26.30;99.90;;;;;;5071513;28;20162;-68
2021/07/28 08:10:13;;;;;;;9.63;4.07;;;25.30;99.90;;;;;;5072417;28;20350;-68
2021/07/28 08:12:39;;;;;;;4.27;3.87;;;25.80;99.90;;;;;;5071270;28;20247;-69
2021/07/28 08:15:05;;;;;;;5.23;3.97;;;25.30;99.90;;;;;;5072673;28;20437;-69
2021/07/28 08:17:31;;;;;;;4.97;4.10;;;25.40;99.90;;;;;;5072371;28;20280;-70
2021/07/28 08:19:57;;;;;;;4.50;4.20;;;26.00;99.90;;;;;;5072740;28;20281;-69
2021/07/28 08:22:23;;;;;;;6.83;4.70;;;26.00;99.90;;;;;;5073783;28;20165;-69
2021/07/28 08:24:48;;;;;;;4.83;4.23;;;26.00;99.90;;;;;;5073447;28;20404;-69
2021/07/28 08:27:14;;;;;;;6.03;4.20;;;25.60;99.90;;;;;;5073567;28;20253;-69
2021/07/28 08:29:39;;;;;;;4.40;3.97;;;25.40;99.90;;;;;;5073132;28;20251;-69
2021/07/28 08:32:05;;;;;;;4.97;4.17;;;26.00;99.90;;;;;;5072914;28;20178;-69
2021/07/28 08:34:30;;;;;;;7.30;4.73;;;25.30;99.90;;;;;;5071992;28;20174;-70
2021/07/28 08:36:56;;;;;;;3.73;3.40;;;25.10;99.90;;;;;;5072044;28;20262;-68
2021/07/28 08:39:21;;;;;;;6.30;3.80;;;25.40;99.90;;;;;;5072196;28;20173;-68
2021/07/28 08:41:48;;;;;;;4.57;3.67;;;26.00;99.90;;;;;;5072037;28;20181;-70
2021/07/28 08:44:18;;;;;;;5.67;4.10;;;26.50;99.90;;;;;;5071986;28;20629;-68
2021/07/28 08:46:45;;;;;;;5.43;3.47;;;26.20;99.90;;;;;;5072132;28;20411;-69
2021/07/28 08:49:13;;;;;;;4.33;3.93;;;26.20;99.90;;;;;;5072387;28;20423;-70
2021/07/28 08:51:42;;;;;;;4.03;3.73;;;26.40;99.90;;;;;;5072023;28;20892;-71
2021/07/28 08:54:08;;;;;;;5.07;4.33;;;26.00;99.90;;;;;;5072033;28;20415;-69
2021/07/28 08:56:39;;;;;;;5.90;4.17;;;26.20;99.90;;;;;;5072183;28;20412;-69
2021/07/28 08:59:05;;;;;;;4.30;3.17;;;25.40;99.90;;;;;;5072561;28;20636;-69
2021/07/28 09:01:30;;;;;;;4.50;4.10;;;26.80;99.90;;;;;;5071715;28;20430;-69
2021/07/28 09:03:56;;;;;;;4.13;3.73;;;26.30;99.90;;;;;;5071943;28;20260;-70
2021/07/28 09:06:31;;;;;;;3.80;3.50;;;26.50;99.90;;;;;;5072566;28;20166;-71
2021/07/28 09:08:58;;;;;;;4.27;3.97;;;25.90;99.90;;;;;;5072199;28;20184;-69
2021/07/28 09:11:24;;;;;;;4.50;4.20;;;26.20;99.90;;;;;;5071772;28;20947;-70
2021/07/28 09:13:53;;;;;;;5.30;4.30;;;27.40;99.90;;;;;;5071668;28;20411;-70
2021/07/28 09:16:19;;;;;;;4.40;4.10;;;25.70;99.90;;;;;;5071986;28;20166;-68
2021/07/28 09:18:48;;;;;;;4.30;3.90;;;25.10;99.90;;;;;;5071436;28;20462;-69
2021/07/28 09:21:20;;;;;;;3.60;3.30;;;25.60;99.90;;;;;;5071528;28;20193;-70
2021/07/28 09:23:46;;;;;;;3.90;3.40;;;26.10;99.90;;;;;;5075517;28;20407;-69
2021/07/28 09:26:38;;;;;;;3.73;3.43;;;27.00;99.90;;;;;;5075831;28;20402;-70
2021/07/28 09:29:09;;;;;;;3.40;3.10;;;26.40;99.90;;;;;;5075755;28;20935;-69
2021/07/28 09:31:44;;;;;;;3.30;3.00;;;26.10;99.90;;;;;;5075613;28;20772;-68
2021/07/28 09:34:33;;;;;;;3.10;2.90;;;26.20;99.90;;;;;;5075480;28;20777;-69
2021/07/28 09:37:00;;;;;;;3.90;3.60;;;26.20;99.90;;;;;;5075228;28;20754;-68
2021/07/28 09:39:34;;;;;;;3.73;2.77;;;25.70;99.90;;;;;;5075207;28;20432;-69
2021/07/28 09:42:10;;;;;;;3.43;3.13;;;26.30;99.90;;;;;;5075354;28;20400;-69
2021/07/28 09:44:37;;;;;;;3.23;2.93;;;26.10;99.90;;;;;;5075285;28;20419;-69
2021/07/28 09:47:05;;;;;;;3.50;3.00;;;25.90;99.90;;;;;;5075300;28;20400;-68
2021/07/28 09:49:31;;;;;;;3.27;3.07;;;26.60;99.90;;;;;;5075176;28;21098;-69
2021/07/28 09:51:56;;;;;;;3.57;3.20;;;27.20;99.90;;;;;;5075314;28;20911;-69
2021/07/28 09:54:26;;;;;;;4.10;3.40;;;27.40;99.90;;;;;;5075587;28;20231;-71
2021/07/28 09:56:57;;;;;;;4.00;3.57;;;26.50;99.90;;;;;;5074914;28;20178;-69
2021/07/28 09:59:23;;;;;;;3.27;3.03;;;26.00;99.90;;;;;;5074997;28;20411;-68
2021/07/28 10:01:49;;;;;;;3.00;2.70;;;25.50;99.90;;;;;;5074590;28;20471;-69
2021/07/28 10:04:16;;;;;;;3.43;3.13;;;25.80;99.90;;;;;;5075121;28;20197;-69
2021/07/28 10:06:44;;;;;;;4.23;3.83;;;25.80;99.90;;;;;;5075051;28;20408;-69
2021/07/28 10:09:16;;;;;;;3.90;3.60;;;25.60;99.90;;;;;;5073813;28;20926;-70
2021/07/28 10:11:46;;;;;;;4.73;3.40;;;25.60;99.90;;;;;;5073267;28;20420;-69
2021/07/28 10:14:15;;;;;;;3.63;3.17;;;25.90;99.90;;;;;;5074542;28;20437;-69
2021/07/28 10:16:41;;;;;;;3.43;3.00;;;25.20;99.90;;;;;;5074605;28;20496;-69
2021/07/28 10:19:06;;;;;;;3.30;3.00;;;25.70;99.90;;;;;;5073070;28;20832;-68
2021/07/28 10:21:34;;;;;;;3.33;3.10;;;25.60;99.90;;;;;;5074623;28;20188;-69
2021/07/28 10:24:01;;;;;;;5.13;3.30;;;25.20;99.90;;;;;;5073264;28;20239;-69
2021/07/28 10:26:27;;;;;;;4.10;3.60;;;25.40;99.90;;;;;;5074357;28;20404;-69
2021/07/28 10:28:54;;;;;;;4.23;3.03;;;26.20;99.90;;;;;;5074498;28;20411;-69
2021/07/28 10:31:22;;;;;;;2.83;2.63;;;26.90;99.90;;;;;;5076005;28;20463;-68
2021/07/28 10:33:49;;;;;;;3.67;2.77;;;25.50;99.90;;;;;;5074332;28;20412;-68
2021/07/28 10:36:19;;;;;;;3.50;3.13;;;25.20;99.90;;;;;;5074396;28;20505;-69
2021/07/28 10:38:51;;;;;;;3.47;2.97;;;25.50;99.90;;;;;;5074262;28;20453;-69
2021/07/28 10:41:36;;;;;;;2.70;2.50;;;26.30;99.90;;;;;;5074222;28;20512;-69
2021/07/28 10:44:27;;;;;;;3.00;2.70;;;26.10;99.90;;;;;;5074322;28;20403;-69
2021/07/28 10:46:53;;;;;;;3.43;3.00;;;26.10;99.90;;;;;;5071579;28;20424;-70
2021/07/28 10:49:37;;;;;;;3.53;3.23;;;26.20;99.90;;;;;;5074622;28;20408;-70
2021/07/28 10:52:04;;;;;;;3.30;2.67;;;25.40;99.90;;;;;;5075015;28;20317;-69
2021/07/28 10:54:48;;;;;;;3.47;3.20;;;26.30;99.90;;;;;;5073040;28;20867;-69
2021/07/28 10:57:32;;;;;;;2.90;2.60;;;25.70;99.90;;;;;;5072887;28;20469;-69
2021/07/28 10:59:58;;;;;;;3.60;3.00;;;26.10;99.90;;;;;;5074170;28;20414;-69
2021/07/28 11:02:24;;;;;;;4.40;3.20;;;26.00;99.90;;;;;;5074239;28;20855;-69
2021/07/28 11:05:18;;;;;;;3.40;3.10;;;25.70;99.90;;;;;;5074098;28;20426;-69
2021/07/28 11:07:58;;;;;;;3.37;3.07;;;26.50;99.90;;;;;;5073023;28;20261;-69
2021/07/28 11:10:24;;;;;;;3.07;2.83;;;26.10;99.90;;;;;;5073726;28;20453;-70
2021/07/28 11:12:51;;;;;;;3.53;3.20;;;26.70;99.90;;;;;;5073478;28;20408;-72
2021/07/28 11:15:16;;;;;;;3.30;3.07;;;26.90;99.90;;;;;;5073310;28;20199;-69
2021/07/28 11:17:43;;;;;;;5.93;2.97;;;25.60;99.90;;;;;;5073181;28;20958;-71
2021/07/28 11:20:09;;;;;;;3.83;3.53;;;25.50;99.90;;;;;;5073351;28;20180;-69
2021/07/28 11:22:35;;;;;;;5.80;3.30;;;25.50;99.90;;;;;;5073292;28;20439;-69
2021/07/28 11:25:00;;;;;;;3.90;3.57;;;25.50;99.90;;;;;;5073208;28;20569;-69
2021/07/28 11:27:26;;;;;;;3.80;3.30;;;25.90;99.90;;;;;;5073030;28;20191;-71
2021/07/28 11:30:13;;;;;;;3.20;2.90;;;25.80;99.90;;;;;;5073241;28;20629;-69
2021/07/28 11:32:39;;;;;;;3.40;3.10;;;26.60;99.90;;;;;;5082314;28;20277;-70
2021/07/28 11:35:06;;;;;;;7.17;3.33;;;26.50;99.90;;;;;;5093113;28;20467;-70
2021/07/28 11:37:31;;;;;;;3.50;3.20;;;26.10;99.90;;;;;;5084722;28;20461;-69
2021/07/28 11:39:59;;;;;;;7.03;3.00;;;26.30;99.90;;;;;;5093029;28;20439;-69
2021/07/28 11:42:28;;;;;;;5.43;3.80;;;26.50;99.90;;;;;;5111714;28;20166;-71
2021/07/28 11:44:53;;;;;;;3.50;3.23;;;26.90;99.90;;;;;;5112804;28;20400;-69
2021/07/28 11:47:24;;;;;;;6.50;4.17;;;26.30;99.90;;;;;;5106439;28;20806;-70
2021/07/28 11:50:02;;;;;;;3.60;3.30;;;26.40;99.90;;;;;;5071382;28;20227;-69
2021/07/28 11:52:29;;;;;;;9.67;8.67;;;25.80;99.90;;;;;;5075522;28;20518;-70
2021/07/28 11:54:55;;;;;;;10.87;9.77;;;25.80;99.90;;;;;;5079168;28;20520;-70
2021/07/28 11:57:20;;;;;;;3.23;3.03;;;26.00;99.90;;;;;;5092652;28;20546;-70
2021/07/28 11:59:46;;;;;;;4.17;3.80;;;25.80;99.90;;;;;;5092640;28;20286;-70
2021/07/28 12:02:20;;;;;;;3.60;3.30;;;25.60;99.90;;;;;;5092706;28;20187;-70
2021/07/28 12:04:47;;;;;;;3.07;2.77;;;25.70;99.90;;;;;;5080690;28;20167;-68
2021/07/28 12:07:15;;;;;;;4.13;3.73;;;25.90;99.90;;;;;;5086459;28;20457;-72
2021/07/28 12:09:42;;;;;;;3.53;2.80;;;26.40;99.90;;;;;;5075036;28;20531;-72
2021/07/28 12:12:19;;;;;;;4.23;3.80;;;26.20;99.90;;;;;;5072398;28;20395;-71
2021/07/28 12:14:46;;;;;;;3.20;2.83;;;26.50;99.90;;;;;;5080932;28;20815;-72
2021/07/28 12:17:18;;;;;;;3.93;3.57;;;26.50;99.90;;;;;;5092900;28;20439;-71
2021/07/28 12:19:51;;;;;;;3.10;2.80;;;26.30;99.90;;;;;;5088278;28;20431;-71
2021/07/28 12:22:30;;;;;;;3.07;2.87;;;25.80;99.90;;;;;;5072153;28;20400;-70
2021/07/28 12:25:11;;;;;;;3.20;2.80;;;26.30;99.90;;;;;;5072742;28;20957;-71
2021/07/28 12:27:59;;;;;;;3.93;2.37;;;26.30;99.90;;;;;;5072032;28;20414;-69
2021/07/28 12:30:38;;;;;;;3.43;3.13;;;26.30;99.30;;;;;;5071972;28;20427;-69
2021/07/28 12:33:08;;;;;;;3.67;3.37;;;26.10;99.90;;;;;;5085043;28;20808;-69
2021/07/28 12:35:50;;;;;;;3.17;2.90;;;25.60;99.90;;;;;;5092082;28;20958;-70
2021/07/28 12:38:17;;;;;;;2.97;2.67;;;26.00;99.90;;;;;;5091850;28;20460;-70
2021/07/28 12:40:56;;;;;;;2.83;2.60;;;26.10;99.90;;;;;;5092302;28;20425;-70
2021/07/28 12:43:39;;;;;;;6.30;5.70;;;26.30;99.90;;;;;;5076423;28;20423;-70
2021/07/28 12:46:07;;;;;;;3.03;2.83;;;26.30;99.90;;;;;;5071932;28;20446;-70
2021/07/28 12:48:34;;;;;;;3.40;3.10;;;26.00;99.90;;;;;;5071593;28;20399;-70
2021/07/28 12:51:01;;;;;;;3.53;3.23;;;25.70;99.90;;;;;;5071653;28;20938;-70
2021/07/28 12:53:28;;;;;;;3.33;3.03;;;25.90;99.90;;;;;;5074113;28;20434;-70